createdAt,value
2016-05-14T00:00:24.343Z,22.04
2016-05-14T00:01:24.127Z,22.05
2016-05-14T00:02:24.130Z,21.93
2016-05-14T00:03:24.101Z,22.01
2016-05-14T00:04:24.105Z,22.02
2016-05-14T00:05:24.090Z,21.86
2016-05-14T00:06:24.110Z,21.85
2016-05-14T00:07:24.049Z,21.89
2016-05-14T00:08:24.333Z,21.83
2016-05-14T00:09:24.038Z,21.94
2016-05-14T00:10:24.010Z,22.11
2016-05-14T00:11:24.013Z,22.01
2016-05-14T00:12:24.001Z,21.96
2016-05-14T00:13:23.972Z,21.98
2016-05-14T00:14:23.802Z,21.91
2016-05-14T00:15:23.962Z,21.81
2016-05-14T00:16:24.354Z,21.81
2016-05-14T00:17:23.936Z,21.73
2016-05-14T00:18:23.767Z,21.74
2016-05-14T00:19:23.910Z,21.79
2016-05-14T00:20:23.897Z,21.73
2016-05-14T00:21:23.900Z,21.75
2016-05-14T00:22:23.871Z,21.75
2016-05-14T00:23:23.859Z,21.77
2016-05-14T00:24:24.361Z,21.79
2016-05-14T00:25:23.847Z,21.75
2016-05-14T00:26:23.834Z,21.74
2016-05-14T00:27:23.822Z,21.79
2016-05-14T00:28:23.809Z,21.77
2016-05-14T00:29:23.796Z,21.79
2016-05-14T00:30:23.783Z,21.77
2016-05-14T00:31:23.770Z,21.81
2016-05-14T00:32:24.367Z,21.73
2016-05-14T00:33:23.744Z,21.75
2016-05-14T00:34:23.730Z,21.74
2016-05-14T00:35:23.719Z,21.67
2016-05-14T00:36:23.705Z,21.68
2016-05-14T00:37:23.693Z,21.73
2016-05-14T00:38:23.524Z,21.66
2016-05-14T00:39:23.510Z,21.64
2016-05-14T00:40:23.654Z,21.67
2016-05-14T00:41:23.641Z,21.66
2016-05-14T00:42:23.627Z,21.73
2016-05-14T00:43:23.471Z,21.71
2016-05-14T00:44:23.601Z,21.56
2016-05-14T00:45:23.445Z,21.66
2016-05-14T00:46:23.433Z,21.63
2016-05-14T00:47:23.577Z,21.61
2016-05-14T00:48:23.641Z,21.73
2016-05-14T00:49:23.551Z,21.63
2016-05-14T00:50:23.537Z,21.53
2016-05-14T00:51:23.368Z,21.56
2016-05-14T00:52:23.198Z,21.63
2016-05-14T00:53:23.498Z,21.66
2016-05-14T00:54:23.486Z,21.59
2016-05-14T00:55:23.473Z,21.59
2016-05-14T00:56:23.663Z,21.61
2016-05-14T00:57:23.447Z,21.58
2016-05-14T00:58:23.433Z,21.7
2016-05-14T00:59:23.420Z,21.61
2016-05-14T01:00:23.408Z,21.63
2016-05-14T01:01:23.255Z,21.63
2016-05-14T01:02:23.383Z,21.66
2016-05-14T01:03:23.072Z,21.61
2016-05-14T01:04:23.653Z,21.55
2016-05-14T01:05:23.186Z,21.52
2016-05-14T01:06:23.174Z,21.4
2016-05-14T01:07:23.317Z,21.52
2016-05-14T01:08:23.320Z,21.56
2016-05-14T01:09:23.308Z,21.52
2016-05-14T01:10:23.294Z,21.49
2016-05-14T01:11:23.266Z,21.51
2016-05-14T01:12:24.409Z,21.49
2016-05-14T01:13:23.255Z,21.43
2016-05-14T01:14:23.243Z,21.48
2016-05-14T01:15:23.229Z,21.45
2016-05-14T01:16:23.217Z,21.4
2016-05-14T01:17:23.048Z,21.36
2016-05-14T01:18:23.206Z,21.37
2016-05-14T01:19:23.475Z,21.22
2016-05-14T01:20:23.181Z,21.21
2016-05-14T01:21:23.151Z,21.26
2016-05-14T01:22:23.139Z,21.42
2016-05-14T01:23:23.126Z,21.43
2016-05-14T01:24:22.801Z,21.53
2016-05-14T01:25:22.944Z,21.48
2016-05-14T01:26:23.087Z,21.51
2016-05-14T01:27:23.278Z,21.52
2016-05-14T01:28:22.905Z,21.45
2016-05-14T01:29:23.064Z,21.43
2016-05-14T01:30:23.036Z,21.34
2016-05-14T01:31:23.023Z,21.31
2016-05-14T01:32:23.010Z,21.36
2016-05-14T01:33:23.169Z,21.3
2016-05-14T01:34:22.984Z,21.28
2016-05-14T01:35:23.425Z,21.33
2016-05-14T01:36:22.958Z,21.28
2016-05-14T01:37:22.960Z,21.11
2016-05-14T01:38:22.932Z,21.12
2016-05-14T01:39:22.935Z,21.19
2016-05-14T01:40:22.906Z,21.16
2016-05-14T01:41:22.908Z,21.21
2016-05-14T01:42:22.881Z,21.48
2016-05-14T01:43:23.320Z,21.7
2016-05-14T01:44:22.870Z,21.83
2016-05-14T01:45:22.873Z,22.04
2016-05-14T01:46:22.688Z,22.17
2016-05-14T01:47:22.832Z,22.21
2016-05-14T01:48:22.521Z,22.35
2016-05-14T01:49:22.805Z,22.44
2016-05-14T01:50:22.792Z,22.46
2016-05-14T01:51:23.171Z,22.54
2016-05-14T01:52:22.767Z,22.46
2016-05-14T01:53:22.754Z,22.57
2016-05-14T01:54:22.756Z,22.57
2016-05-14T01:55:22.728Z,22.57
2016-05-14T01:56:22.715Z,22.57
2016-05-14T01:57:22.701Z,22.56
2016-05-14T01:58:22.549Z,22.59
2016-05-14T01:59:23.317Z,22.61
2016-05-14T02:00:22.664Z,22.69
2016-05-14T02:01:22.650Z,22.67
2016-05-14T02:02:22.637Z,22.81
2016-05-14T02:03:22.609Z,22.78
2016-05-14T02:04:22.470Z,22.86
2016-05-14T02:05:22.442Z,22.84
2016-05-14T02:06:22.585Z,22.86
2016-05-14T02:07:23.432Z,22.84
2016-05-14T02:08:22.575Z,22.82
2016-05-14T02:09:22.547Z,22.89
2016-05-14T02:10:22.566Z,22.85
2016-05-14T02:11:22.521Z,22.79
2016-05-14T02:12:22.524Z,22.85
2016-05-14T02:13:22.510Z,22.88
2016-05-14T02:14:22.497Z,22.85
2016-05-14T02:15:23.329Z,22.81
2016-05-14T02:16:22.457Z,22.89
2016-05-14T02:17:22.460Z,22.86
2016-05-14T02:18:22.305Z,22.85
2016-05-14T02:19:22.277Z,22.85
2016-05-14T02:20:22.435Z,22.86
2016-05-14T02:21:22.266Z,22.91
2016-05-14T02:22:22.394Z,22.99
2016-05-14T02:23:22.678Z,22.91
2016-05-14T02:24:22.384Z,23
2016-05-14T02:25:22.371Z,23
2016-05-14T02:26:22.359Z,22.97
2016-05-14T02:27:22.345Z,23.01
2016-05-14T02:28:22.316Z,23.01
2016-05-14T02:29:22.304Z,22.97
2016-05-14T02:30:22.307Z,23.03
2016-05-14T02:31:22.637Z,22.99
2016-05-14T02:32:22.281Z,22.99
2016-05-14T02:33:22.284Z,22.99
2016-05-14T02:34:22.255Z,23.01
2016-05-14T02:35:22.242Z,22.99
2016-05-14T02:36:22.275Z,23
2016-05-14T02:37:22.263Z,22.94
2016-05-14T02:38:22.203Z,22.99
2016-05-14T02:39:22.706Z,22.99
2016-05-14T02:40:22.022Z,23.03
2016-05-14T02:41:22.008Z,23.01
2016-05-14T02:42:22.213Z,22.97
2016-05-14T02:43:21.997Z,23.15
2016-05-14T02:44:21.969Z,23.04
2016-05-14T02:45:22.019Z,23.06
2016-05-14T02:46:22.177Z,23.03
2016-05-14T02:47:21.946Z,23
2016-05-14T02:48:22.121Z,23.04
2016-05-14T02:49:22.076Z,23.07
2016-05-14T02:50:22.048Z,23
2016-05-14T02:51:22.034Z,23.15
2016-05-14T02:52:21.881Z,22.99
2016-05-14T02:53:22.025Z,23.12
2016-05-14T02:54:22.011Z,23.09
2016-05-14T02:55:21.998Z,23.14
2016-05-14T02:56:21.985Z,23.12
2016-05-14T02:57:21.957Z,23.06
2016-05-14T02:58:21.804Z,23.15
2016-05-14T02:59:21.947Z,23.15
2016-05-14T03:00:21.934Z,23.09
2016-05-14T03:01:21.920Z,23.06
2016-05-14T03:02:21.908Z,23.15
2016-05-14T03:03:22.129Z,23.12
2016-05-14T03:04:21.882Z,23.11
2016-05-14T03:05:21.869Z,23.12
2016-05-14T03:06:21.716Z,23.14
2016-05-14T03:07:21.844Z,23.04
2016-05-14T03:08:21.846Z,23.07
2016-05-14T03:09:21.833Z,23.14
2016-05-14T03:10:21.664Z,23.09
2016-05-14T03:11:21.807Z,23.11
2016-05-14T03:12:21.794Z,23.12
2016-05-14T03:13:21.781Z,23.07
2016-05-14T03:14:21.784Z,23.06
2016-05-14T03:15:21.599Z,23.11
2016-05-14T03:16:21.743Z,23.07
2016-05-14T03:17:21.730Z,23.07
2016-05-14T03:18:21.748Z,23.07
2016-05-14T03:19:21.547Z,23.07
2016-05-14T03:20:21.799Z,23.06
2016-05-14T03:21:21.693Z,23.12
2016-05-14T03:22:21.680Z,23.14
2016-05-14T03:23:21.668Z,23.15
2016-05-14T03:24:21.655Z,23.12
2016-05-14T03:25:21.485Z,23.14
2016-05-14T03:26:21.629Z,23.19
2016-05-14T03:27:21.615Z,23.18
2016-05-14T03:28:21.665Z,23.18
2016-05-14T03:29:21.590Z,23.19
2016-05-14T03:30:21.576Z,23.15
2016-05-14T03:31:21.409Z,23.21
2016-05-14T03:32:21.551Z,23.16
2016-05-14T03:33:21.632Z,23.16
2016-05-14T03:34:21.525Z,23.21
2016-05-14T03:35:21.528Z,23.15
2016-05-14T03:36:21.703Z,23.15
2016-05-14T03:37:21.502Z,23.14
2016-05-14T03:38:21.473Z,23.16
2016-05-14T03:39:21.320Z,23.14
2016-05-14T03:40:21.308Z,23.12
2016-05-14T03:41:21.450Z,23.18
2016-05-14T03:42:21.438Z,23.14
2016-05-14T03:43:21.425Z,23.14
2016-05-14T03:44:21.708Z,23.18
2016-05-14T03:45:21.242Z,23.16
2016-05-14T03:46:21.385Z,23.14
2016-05-14T03:47:21.372Z,23.16
2016-05-14T03:48:21.297Z,23.19
2016-05-14T03:49:21.346Z,23.15
2016-05-14T03:50:21.334Z,23.14
2016-05-14T03:51:21.321Z,23.14
2016-05-14T03:52:21.668Z,23.16
2016-05-14T03:53:21.310Z,23.16
2016-05-14T03:54:21.282Z,23.18
2016-05-14T03:55:21.285Z,23.18
2016-05-14T03:56:21.115Z,23.15
2016-05-14T03:57:21.260Z,23.15
2016-05-14T03:58:21.245Z,23.16
2016-05-14T03:59:21.233Z,23.12
2016-05-14T04:00:21.721Z,23.11
2016-05-14T04:01:21.223Z,23.18
2016-05-14T04:02:21.210Z,23.16
2016-05-14T04:03:21.197Z,23.19
2016-05-14T04:04:21.168Z,23.18
2016-05-14T04:05:21.015Z,23.15
2016-05-14T04:06:21.158Z,23.14
2016-05-14T04:07:21.145Z,23.16
2016-05-14T04:08:21.726Z,23.14
2016-05-14T04:09:21.104Z,23.16
2016-05-14T04:10:21.107Z,23.18
2016-05-14T04:11:21.078Z,23.11
2016-05-14T04:12:21.081Z,23.18
2016-05-14T04:13:21.067Z,23.15
2016-05-14T04:14:21.039Z,23.16
2016-05-14T04:15:21.041Z,23.15
2016-05-14T04:16:21.716Z,23.16
2016-05-14T04:17:21.032Z,23.09
2016-05-14T04:18:21.003Z,23.14
2016-05-14T04:19:21.005Z,23.15
2016-05-14T04:20:20.983Z,23.18
2016-05-14T04:21:20.857Z,23.12
2016-05-14T04:22:21.043Z,23.12
2016-05-14T04:23:21.089Z,23.15
2016-05-14T04:24:21.165Z,23.11
2016-05-14T04:25:21.145Z,23.09
2016-05-14T04:26:21.132Z,23.16
2016-05-14T04:27:21.134Z,23.15
2016-05-14T04:28:21.137Z,23.09
2016-05-14T04:29:21.155Z,23.15
2016-05-14T04:30:21.155Z,23.14
2016-05-14T04:31:20.836Z,23.18
2016-05-14T04:32:21.329Z,23.16
2016-05-14T04:33:21.556Z,23.11
2016-05-14T04:34:21.127Z,23.22
2016-05-14T04:35:21.135Z,23.18
2016-05-14T04:36:21.109Z,23.14
2016-05-14T04:37:21.098Z,23.04
2016-05-14T04:38:21.086Z,23.04
2016-05-14T04:39:21.076Z,23.18
2016-05-14T04:40:21.361Z,23.15
2016-05-14T04:41:21.053Z,23.04
2016-05-14T04:42:20.899Z,23.16
2016-05-14T04:43:20.731Z,23.07
2016-05-14T04:44:21.016Z,23.16
2016-05-14T04:45:20.848Z,23.07
2016-05-14T04:46:21.006Z,23.09
2016-05-14T04:47:20.994Z,23.18
2016-05-14T04:48:20.856Z,23.04
2016-05-14T04:49:20.969Z,23.16
2016-05-14T04:50:20.957Z,23.16
2016-05-14T04:51:20.787Z,23.11
2016-05-14T04:52:20.774Z,23.12
2016-05-14T04:53:20.917Z,23.03
2016-05-14T04:54:20.763Z,23.04
2016-05-14T04:55:20.985Z,23.11
2016-05-14T04:56:20.879Z,23.12
2016-05-14T04:57:20.866Z,23.06
2016-05-14T04:58:20.853Z,23.14
2016-05-14T04:59:20.856Z,23.09
2016-05-14T05:00:20.514Z,23.07
2016-05-14T05:01:20.829Z,23.11
2016-05-14T05:02:20.660Z,23.01
2016-05-14T05:03:21.600Z,23.11
2016-05-14T05:04:20.791Z,23.06
2016-05-14T05:05:20.778Z,23.11
2016-05-14T05:06:20.765Z,23.12
2016-05-14T05:07:20.753Z,23.14
2016-05-14T05:08:20.739Z,23.07
2016-05-14T05:09:20.726Z,23.09
2016-05-14T05:10:20.713Z,23.12
2016-05-14T05:11:21.106Z,23.06
2016-05-14T05:12:20.687Z,23.04
2016-05-14T05:13:20.690Z,23.07
2016-05-14T05:14:20.522Z,23.03
2016-05-14T05:15:20.664Z,23.12
2016-05-14T05:16:20.652Z,23.07
2016-05-14T05:17:20.466Z,23.07
2016-05-14T05:18:20.500Z,23.11
2016-05-14T05:19:21.002Z,23.07
2016-05-14T05:20:20.584Z,23.11
2016-05-14T05:21:20.430Z,23.18
2016-05-14T05:22:20.589Z,23.06
2016-05-14T05:23:20.561Z,23.09
2016-05-14T05:24:20.532Z,23.14
2016-05-14T05:25:20.535Z,23.14
2016-05-14T05:26:20.521Z,23.11
2016-05-14T05:27:20.852Z,23.14
2016-05-14T05:28:20.496Z,23.12
2016-05-14T05:29:20.499Z,23.09
2016-05-14T05:30:20.314Z,23.06
2016-05-14T05:31:20.473Z,23.06
2016-05-14T05:32:20.288Z,23.07
2016-05-14T05:33:20.478Z,23.03
2016-05-14T05:34:20.418Z,23.18
2016-05-14T05:35:20.265Z,23.09
2016-05-14T05:36:20.408Z,23.12
2016-05-14T05:37:20.239Z,23.15
2016-05-14T05:38:20.226Z,23.12
2016-05-14T05:39:20.369Z,23.11
2016-05-14T05:40:20.372Z,23.12
2016-05-14T05:41:20.343Z,23.06
2016-05-14T05:42:20.330Z,23.11
2016-05-14T05:43:20.865Z,23.09
2016-05-14T05:44:20.305Z,23.04
2016-05-14T05:45:20.292Z,23.14
2016-05-14T05:46:20.294Z,23.12
2016-05-14T05:47:20.125Z,23.11
2016-05-14T05:48:19.956Z,23.11
2016-05-14T05:49:20.255Z,23.16
2016-05-14T05:50:20.243Z,23.12
2016-05-14T05:51:20.338Z,23.11
2016-05-14T05:52:20.217Z,23.12
2016-05-14T05:53:20.205Z,23.12
2016-05-14T05:54:20.175Z,23.11
2016-05-14T05:55:20.178Z,23.11
2016-05-14T05:56:20.165Z,23.14
2016-05-14T05:57:20.152Z,23.07
2016-05-14T05:58:19.983Z,23.07
2016-05-14T05:59:20.173Z,23.09
2016-05-14T06:00:19.973Z,23.07
2016-05-14T06:01:20.115Z,23.14
2016-05-14T06:02:20.088Z,23.12
2016-05-14T06:03:20.106Z,23.06
2016-05-14T06:04:20.077Z,23.14
2016-05-14T06:05:20.065Z,23.09
2016-05-14T06:06:20.036Z,23.06
2016-05-14T06:07:20.335Z,23.15
2016-05-14T06:08:20.026Z,23.11
2016-05-14T06:09:20.012Z,23.12
2016-05-14T06:10:20.000Z,23.09
2016-05-14T06:11:19.674Z,23.12
2016-05-14T06:12:19.817Z,23.07
2016-05-14T06:13:19.805Z,23.06
2016-05-14T06:14:19.792Z,23.07
2016-05-14T06:15:20.342Z,23.14
2016-05-14T06:16:19.609Z,23.04
2016-05-14T06:17:19.925Z,23.12
2016-05-14T06:18:20.177Z,23.15
2016-05-14T06:19:19.899Z,23.03
2016-05-14T06:20:19.869Z,23.12
2016-05-14T06:21:19.872Z,23.12
2016-05-14T06:22:19.954Z,23.01
2016-05-14T06:23:19.832Z,23.06
2016-05-14T06:24:19.835Z,23.04
2016-05-14T06:25:19.837Z,23
2016-05-14T06:26:19.808Z,23.03
2016-05-14T06:27:19.810Z,22.99
2016-05-14T06:28:19.782Z,23.15
2016-05-14T06:29:19.769Z,23.07
2016-05-14T06:30:19.959Z,23.06
2016-05-14T06:31:19.759Z,23.07
2016-05-14T06:32:19.746Z,23.07
2016-05-14T06:33:19.734Z,23.07
2016-05-14T06:34:19.549Z,22.99
2016-05-14T06:35:19.551Z,22.99
2016-05-14T06:36:19.695Z,23.18
2016-05-14T06:37:19.681Z,23.14
2016-05-14T06:38:19.950Z,23.12
2016-05-14T06:39:19.484Z,23.01
2016-05-14T06:40:19.627Z,22.99
2016-05-14T06:41:19.630Z,22.99
2016-05-14T06:42:19.460Z,23.04
2016-05-14T06:43:19.603Z,22.99
2016-05-14T06:44:19.592Z,23.11
2016-05-14T06:45:19.578Z,23.19
2016-05-14T06:46:19.972Z,23.03
2016-05-14T06:47:19.567Z,23.01
2016-05-14T06:48:19.711Z,23
2016-05-14T06:49:19.855Z,23.03
2016-05-14T06:50:19.513Z,23.12
2016-05-14T06:51:19.516Z,23.03
2016-05-14T06:52:19.502Z,23.15
2016-05-14T06:53:19.334Z,23.03
2016-05-14T06:54:19.962Z,22.99
2016-05-14T06:55:19.449Z,23.11
2016-05-14T06:56:19.452Z,23.04
2016-05-14T06:57:19.438Z,23.09
2016-05-14T06:58:19.426Z,22.99
2016-05-14T06:59:19.397Z,22.97
2016-05-14T07:00:19.415Z,23.01
2016-05-14T07:01:19.402Z,23.07
2016-05-14T07:02:20.029Z,23.06
2016-05-14T07:03:19.204Z,23.03
2016-05-14T07:04:19.348Z,23.15
2016-05-14T07:05:19.350Z,23.12
2016-05-14T07:06:19.323Z,23.11
2016-05-14T07:07:19.325Z,23
2016-05-14T07:08:19.296Z,23.01
2016-05-14T07:09:19.284Z,23.01
2016-05-14T07:10:20.020Z,23.04
2016-05-14T07:11:19.273Z,22.99
2016-05-14T07:12:19.088Z,23.04
2016-05-14T07:13:19.091Z,23
2016-05-14T07:14:19.062Z,23.03
2016-05-14T07:15:19.222Z,23.12
2016-05-14T07:16:19.068Z,23.04
2016-05-14T07:17:19.195Z,23.09
2016-05-14T07:18:19.636Z,23.11
2016-05-14T07:19:19.170Z,22.99
2016-05-14T07:20:19.000Z,23.12
2016-05-14T07:21:19.144Z,23
2016-05-14T07:22:18.974Z,23.07
2016-05-14T07:23:19.133Z,23.04
2016-05-14T07:24:18.964Z,22.99
2016-05-14T07:25:19.108Z,23.03
2016-05-14T07:26:19.173Z,22.99
2016-05-14T07:27:18.909Z,22.97
2016-05-14T07:28:19.053Z,23.01
2016-05-14T07:29:19.041Z,23.01
2016-05-14T07:30:18.871Z,23.03
2016-05-14T07:31:19.030Z,23
2016-05-14T07:32:19.017Z,23.01
2016-05-14T07:33:18.957Z,23.01
2016-05-14T07:34:19.913Z,23.01
2016-05-14T07:35:18.665Z,23.03
2016-05-14T07:36:18.965Z,23
2016-05-14T07:37:18.952Z,23.11
2016-05-14T07:38:18.940Z,23.18
2016-05-14T07:39:18.771Z,23.07
2016-05-14T07:40:18.929Z,23.03
2016-05-14T07:41:18.901Z,23.06
2016-05-14T07:42:19.340Z,23.06
2016-05-14T07:43:18.733Z,22.99
2016-05-14T07:44:18.878Z,23.01
2016-05-14T07:45:18.848Z,23.03
2016-05-14T07:46:18.836Z,23.03
2016-05-14T07:47:18.839Z,22.97
2016-05-14T07:48:18.670Z,23.01
2016-05-14T07:49:18.814Z,22.99
2016-05-14T07:50:18.800Z,23.14
2016-05-14T07:51:18.787Z,23
2016-05-14T07:52:18.774Z,23.01
2016-05-14T07:53:18.777Z,22.96
2016-05-14T07:54:18.748Z,22.86
2016-05-14T07:55:18.735Z,22.85
2016-05-14T07:56:18.722Z,22.69
2016-05-14T07:57:18.710Z,22.75
2016-05-14T07:58:18.555Z,22.69
2016-05-14T07:59:18.683Z,22.67
2016-05-14T08:00:18.671Z,22.64
2016-05-14T08:01:18.674Z,22.59
2016-05-14T08:02:18.660Z,22.52
2016-05-14T08:03:18.679Z,22.54
2016-05-14T08:04:18.635Z,22.48
2016-05-14T08:05:18.621Z,22.61
2016-05-14T08:06:18.609Z,22.59
2016-05-14T08:07:18.595Z,22.67
2016-05-14T08:08:18.582Z,22.67
2016-05-14T08:09:18.570Z,22.7
2016-05-14T08:10:18.557Z,22.81
2016-05-14T08:11:18.388Z,22.82
2016-05-14T08:12:18.531Z,22.85
2016-05-14T08:13:18.517Z,22.86
2016-05-14T08:14:18.348Z,22.84
2016-05-14T08:15:18.508Z,22.82
2016-05-14T08:16:18.495Z,22.85
2016-05-14T08:17:18.497Z,22.91
2016-05-14T08:18:18.297Z,22.82
2016-05-14T08:19:18.612Z,22.91
2016-05-14T08:20:18.442Z,22.84
2016-05-14T08:21:18.430Z,22.88
2016-05-14T08:22:18.417Z,22.88
2016-05-14T08:23:18.405Z,22.94
2016-05-14T08:24:18.078Z,22.88
2016-05-14T08:25:18.222Z,22.86
2016-05-14T08:26:18.366Z,22.91
2016-05-14T08:27:18.352Z,22.88
2016-05-14T08:28:18.339Z,22.99
2016-05-14T08:29:18.357Z,22.88
2016-05-14T08:30:18.157Z,22.84
2016-05-14T08:31:18.347Z,22.89
2016-05-14T08:32:18.304Z,22.85
2016-05-14T08:33:18.307Z,22.94
2016-05-14T08:34:18.310Z,22.85
2016-05-14T08:35:18.249Z,22.85
2016-05-14T08:36:18.096Z,22.86
2016-05-14T08:37:18.082Z,22.86
2016-05-14T08:38:18.241Z,22.82
2016-05-14T08:39:18.323Z,22.89
2016-05-14T08:40:17.887Z,22.89
2016-05-14T08:41:18.031Z,22.88
2016-05-14T08:42:18.174Z,22.88
2016-05-14T08:43:18.020Z,22.94
2016-05-14T08:44:18.148Z,22.86
2016-05-14T08:45:18.135Z,22.89
2016-05-14T08:46:18.123Z,22.85
2016-05-14T08:47:18.359Z,22.86
2016-05-14T08:48:17.831Z,22.89
2016-05-14T08:49:18.303Z,22.86
2016-05-14T08:50:17.914Z,22.86
2016-05-14T08:51:18.073Z,22.86
2016-05-14T08:52:18.044Z,22.88
2016-05-14T08:53:18.031Z,22.85
2016-05-14T08:54:18.034Z,22.84
2016-05-14T08:55:18.366Z,22.89
2016-05-14T08:56:18.008Z,22.82
2016-05-14T08:57:17.980Z,22.88
2016-05-14T08:58:17.967Z,22.85
2016-05-14T08:59:17.955Z,22.89
2016-05-14T09:00:17.972Z,22.84
2016-05-14T09:01:17.944Z,22.84
2016-05-14T09:02:17.930Z,22.85
2016-05-14T09:03:18.371Z,22.85
2016-05-14T09:04:17.890Z,22.91
2016-05-14T09:05:17.892Z,22.89
2016-05-14T09:06:17.879Z,22.89
2016-05-14T09:07:17.881Z,22.84
2016-05-14T09:08:17.869Z,22.88
2016-05-14T09:09:17.841Z,22.88
2016-05-14T09:10:17.827Z,22.86
2016-05-14T09:11:18.424Z,22.85
2016-05-14T09:12:17.645Z,22.89
2016-05-14T09:13:17.648Z,22.84
2016-05-14T09:14:17.792Z,22.84
2016-05-14T09:15:17.778Z,22.79
2016-05-14T09:16:17.765Z,22.93
2016-05-14T09:17:17.752Z,22.88
2016-05-14T09:18:17.786Z,22.84
2016-05-14T09:19:18.415Z,22.88
2016-05-14T09:20:17.557Z,22.93
2016-05-14T09:21:17.701Z,22.89
2016-05-14T09:22:17.688Z,22.86
2016-05-14T09:23:17.691Z,22.93
2016-05-14T09:24:17.678Z,22.94
2016-05-14T09:25:17.649Z,22.89
2016-05-14T09:26:17.652Z,22.93
2016-05-14T09:27:17.669Z,22.96
2016-05-14T09:28:17.454Z,22.96
2016-05-14T09:29:17.597Z,23
2016-05-14T09:30:17.443Z,22.94
2016-05-14T09:31:17.572Z,22.99
2016-05-14T09:32:17.402Z,22.96
2016-05-14T09:33:17.655Z,22.91
2016-05-14T09:34:17.564Z,22.88
2016-05-14T09:35:17.676Z,22.99
2016-05-14T09:36:17.507Z,23.01
2016-05-14T09:37:17.509Z,22.99
2016-05-14T09:38:17.496Z,22.94
2016-05-14T09:39:17.484Z,22.91
2016-05-14T09:40:17.314Z,22.89
2016-05-14T09:41:17.129Z,22.96
2016-05-14T09:42:17.444Z,22.94
2016-05-14T09:43:17.681Z,22.86
2016-05-14T09:44:17.419Z,22.91
2016-05-14T09:45:17.406Z,22.84
2016-05-14T09:46:17.409Z,22.88
2016-05-14T09:47:17.380Z,22.91
2016-05-14T09:48:18.070Z,22.88
2016-05-14T09:49:17.354Z,22.91
2016-05-14T09:50:17.184Z,22.84
2016-05-14T09:51:17.672Z,22.89
2016-05-14T09:52:17.315Z,22.84
2016-05-14T09:53:17.302Z,22.82
2016-05-14T09:54:17.305Z,22.91
2016-05-14T09:55:17.292Z,22.74
2016-05-14T09:56:17.108Z,22.39
2016-05-14T09:57:17.250Z,22.04
2016-05-14T09:58:17.300Z,21.63
2016-05-14T09:59:17.694Z,21.24
2016-05-14T10:00:17.086Z,21.12
2016-05-14T10:01:17.043Z,21.18
2016-05-14T10:02:17.202Z,21.09
2016-05-14T10:03:17.360Z,21.12
2016-05-14T10:04:17.926Z,21.08
2016-05-14T10:05:17.163Z,21.05
2016-05-14T10:06:17.352Z,20.93
2016-05-14T10:07:16.980Z,21.05
2016-05-14T10:08:17.124Z,20.88
2016-05-14T10:09:17.127Z,20.96
2016-05-14T10:10:17.099Z,20.97
2016-05-14T10:11:17.100Z,20.93
2016-05-14T10:12:17.073Z,21.01
2016-05-14T10:13:17.060Z,20.96
2016-05-14T10:14:17.359Z,21.03
2016-05-14T10:15:17.034Z,21.12
2016-05-14T10:16:17.036Z,21.06
2016-05-14T10:17:17.007Z,21.08
2016-05-14T10:18:16.854Z,21.05
2016-05-14T10:19:17.575Z,20.88
2016-05-14T10:20:16.969Z,20.85
2016-05-14T10:21:16.971Z,20.75
2016-05-14T10:22:17.411Z,20.73
2016-05-14T10:23:16.946Z,20.76
2016-05-14T10:24:16.917Z,20.75
2016-05-14T10:25:16.920Z,20.61
2016-05-14T10:26:16.906Z,20.6
2016-05-14T10:27:16.878Z,20.6
2016-05-14T10:28:16.881Z,20.63
2016-05-14T10:29:16.868Z,20.85
2016-05-14T10:30:17.402Z,21.18
2016-05-14T10:31:16.827Z,21.55
2016-05-14T10:32:16.829Z,21.73
2016-05-14T10:33:16.910Z,21.96
2016-05-14T10:34:16.788Z,22.15
2016-05-14T10:35:16.774Z,22.27
2016-05-14T10:36:16.777Z,22.38
2016-05-14T10:37:16.608Z,22.38
2016-05-14T10:38:16.736Z,22.29
2016-05-14T10:39:16.739Z,22.15
2016-05-14T10:40:16.726Z,22.11
2016-05-14T10:41:16.557Z,22.11
2016-05-14T10:42:16.685Z,21.99
2016-05-14T10:43:16.671Z,21.93
2016-05-14T10:44:16.502Z,21.94
2016-05-14T10:45:16.645Z,22.02
2016-05-14T10:46:16.742Z,22.09
2016-05-14T10:47:16.635Z,22.08
2016-05-14T10:48:16.637Z,22.21
2016-05-14T10:49:16.562Z,22.12
2016-05-14T10:50:16.580Z,22.11
2016-05-14T10:51:16.567Z,22.04
2016-05-14T10:52:16.415Z,21.94
2016-05-14T10:53:16.558Z,22.01
2016-05-14T10:54:16.794Z,21.83
2016-05-14T10:55:16.203Z,21.89
2016-05-14T10:56:16.519Z,21.9
2016-05-14T10:57:16.506Z,21.89
2016-05-14T10:58:16.492Z,21.85
2016-05-14T10:59:16.324Z,21.94
2016-05-14T11:00:16.467Z,21.96
2016-05-14T11:01:16.486Z,22.09
2016-05-14T11:02:16.738Z,22.15
2016-05-14T11:03:16.710Z,22.12
2016-05-14T11:04:16.258Z,22.09
2016-05-14T11:05:16.402Z,22.02
2016-05-14T11:06:16.389Z,22.01
2016-05-14T11:07:16.235Z,21.99
2016-05-14T11:08:16.364Z,22.08
2016-05-14T11:09:16.396Z,21.94
2016-05-14T11:10:16.806Z,22.01
2016-05-14T11:11:16.325Z,21.94
2016-05-14T11:12:16.343Z,21.86
2016-05-14T11:13:16.143Z,21.85
2016-05-14T11:14:16.129Z,21.98
2016-05-14T11:15:16.273Z,21.81
2016-05-14T11:16:16.120Z,21.83
2016-05-14T11:17:16.419Z,21.74
2016-05-14T11:18:15.968Z,21.75
2016-05-14T11:19:16.268Z,21.75
2016-05-14T11:20:16.052Z,21.75
2016-05-14T11:21:16.195Z,21.75
2016-05-14T11:22:16.182Z,21.71
2016-05-14T11:23:16.184Z,21.66
2016-05-14T11:24:16.156Z,21.71
2016-05-14T11:25:16.237Z,21.68
2016-05-14T11:26:16.131Z,21.75
2016-05-14T11:27:16.118Z,21.85
2016-05-14T11:28:15.964Z,21.98
2016-05-14T11:29:16.107Z,22.04
2016-05-14T11:30:16.094Z,22.11
2016-05-14T11:31:16.066Z,22.08
2016-05-14T11:32:15.897Z,22.11
2016-05-14T11:33:16.586Z,22.11
2016-05-14T11:34:17.699Z,22.26
2016-05-14T11:35:16.030Z,22.26
2016-05-14T11:36:16.002Z,22.23
2016-05-14T11:37:15.988Z,22.2
2016-05-14T11:38:15.819Z,22.39
2016-05-14T11:39:15.978Z,22.45
2016-05-14T11:40:15.949Z,22.57
2016-05-14T11:41:16.483Z,22.61
2016-05-14T11:42:15.923Z,22.61
2016-05-14T11:43:15.910Z,22.56
2016-05-14T11:44:15.741Z,22.54
2016-05-14T11:45:15.885Z,22.57
2016-05-14T11:46:15.887Z,22.74
2016-05-14T11:47:15.874Z,22.82
2016-05-14T11:48:16.018Z,23.03
2016-05-14T11:49:16.459Z,23.11
2016-05-14T11:50:15.836Z,23.14
2016-05-14T11:51:15.823Z,23.15
2016-05-14T11:52:15.498Z,23.18
2016-05-14T11:53:15.829Z,23.25
2016-05-14T11:54:15.784Z,23.21
2016-05-14T11:55:15.771Z,23.32
2016-05-14T11:56:15.758Z,23.37
2016-05-14T11:57:16.448Z,23.38
2016-05-14T11:58:15.733Z,23.39
2016-05-14T11:59:15.703Z,23.34
2016-05-14T12:00:15.691Z,23.22
2016-05-14T12:01:15.693Z,23.18
2016-05-14T12:02:15.711Z,23.19
2016-05-14T12:03:15.496Z,23.18
2016-05-14T12:04:15.592Z,23.12
2016-05-14T12:05:15.751Z,23.15
2016-05-14T12:06:15.644Z,23.03
2016-05-14T12:07:15.616Z,23.14
2016-05-14T12:08:15.602Z,23.07
2016-05-14T12:09:15.591Z,23.14
2016-05-14T12:10:15.576Z,23.06
2016-05-14T12:11:15.579Z,23.16
2016-05-14T12:12:15.551Z,23.29
2016-05-14T12:13:15.741Z,23.26
2016-05-14T12:14:15.526Z,23.22
2016-05-14T12:15:15.216Z,23.18
2016-05-14T12:16:15.360Z,23.18
2016-05-14T12:17:15.502Z,23.15
2016-05-14T12:18:15.318Z,23.07
2016-05-14T12:19:15.320Z,23.11
2016-05-14T12:20:15.463Z,23.01
2016-05-14T12:21:15.748Z,22.99
2016-05-14T12:22:15.437Z,23.03
2016-05-14T12:23:15.440Z,23.07
2016-05-14T12:24:15.412Z,23.11
2016-05-14T12:25:15.398Z,23.11
2016-05-14T12:26:15.386Z,23.06
2016-05-14T12:27:15.373Z,23.14
2016-05-14T12:28:15.516Z,23.14
2016-05-14T12:29:15.753Z,23.11
2016-05-14T12:30:15.334Z,23.07
2016-05-14T12:31:15.321Z,23.09
2016-05-14T12:32:15.308Z,23.11
2016-05-14T12:33:15.294Z,23.07
2016-05-14T12:34:15.360Z,23.06
2016-05-14T12:35:15.269Z,23.12
2016-05-14T12:36:15.522Z,22.97
2016-05-14T12:37:15.243Z,23.03
2016-05-14T12:38:15.074Z,23.15
2016-05-14T12:39:15.077Z,23.03
2016-05-14T12:40:15.205Z,23.01
2016-05-14T12:41:15.192Z,23.11
2016-05-14T12:42:15.179Z,23.11
2016-05-14T12:43:15.182Z,23.14
2016-05-14T12:44:15.372Z,23.16
2016-05-14T12:45:15.140Z,23.39
2016-05-14T12:46:15.127Z,23.53
2016-05-14T12:47:15.145Z,23.77
2016-05-14T12:48:15.132Z,23.89
2016-05-14T12:49:15.385Z,24
2016-05-14T12:50:15.106Z,24.05
2016-05-14T12:51:15.094Z,24.16
2016-05-14T12:52:15.409Z,24.29
2016-05-14T12:53:15.051Z,24.31
2016-05-14T12:54:15.039Z,24.39